sensor_id;sensor_type;location;lat;lon;timestamp;P1;durP1;ratioP1;P2;durP2;ratioP2
1452;SDS011;720;47.738;7.998;2024-02-15T00:02:22;1.77;;;1.45;;
1452;SDS011;720;47.738;7.998;2024-02-15T00:04:47;3.13;;;1.80;;
1452;SDS011;720;47.738;7.998;2024-02-15T00:07:13;2.27;;;1.47;;
1452;SDS011;720;47.738;7.998;2024-02-15T00:09:39;2.43;;;1.27;;
1452;SDS011;720;47.738;7.998;2024-02-15T00:12:04;1.63;;;1.10;;
1452;SDS011;720;47.738;7.998;2024-02-15T00:14:30;1.63;;;1.17;;
1452;SDS011;720;47.738;7.998;2024-02-15T00:16:56;2.45;;;1.27;;
1452;SDS011;720;47.738;7.998;2024-02-15T00:19:22;1.88;;;1.40;;
1452;SDS011;720;47.738;7.998;2024-02-15T00:21:48;1.38;;;1.27;;
1452;SDS011;720;47.738;7.998;2024-02-15T00:24:14;1.23;;;1.03;;
1452;SDS011;720;47.738;7.998;2024-02-15T00:26:40;1.20;;;1.10;;
1452;SDS011;720;47.738;7.998;2024-02-15T00:29:07;2.03;;;1.15;;
1452;SDS011;720;47.738;7.998;2024-02-15T00:31:33;1.73;;;0.95;;
1452;SDS011;720;47.738;7.998;2024-02-15T00:34:00;0.95;;;0.93;;
1452;SDS011;720;47.738;7.998;2024-02-15T00:36:27;2.40;;;1.48;;
1452;SDS011;720;47.738;7.998;2024-02-15T00:38:54;1.50;;;1.23;;
1452;SDS011;720;47.738;7.998;2024-02-15T00:41:20;0.70;;;0.70;;
1452;SDS011;720;47.738;7.998;2024-02-15T00:43:46;1.35;;;1.20;;
1452;SDS011;720;47.738;7.998;2024-02-15T00:46:12;1.10;;;1.00;;
1452;SDS011;720;47.738;7.998;2024-02-15T00:48:38;2.37;;;2.27;;
1452;SDS011;720;47.738;7.998;2024-02-15T00:51:05;1.48;;;1.35;;
1452;SDS011;720;47.738;7.998;2024-02-15T00:53:30;1.93;;;1.40;;
1452;SDS011;720;47.738;7.998;2024-02-15T00:55:56;2.43;;;2.17;;
1452;SDS011;720;47.738;7.998;2024-02-15T00:58:22;1.37;;;1.20;;
1452;SDS011;720;47.738;7.998;2024-02-15T01:00:47;7.10;;;1.17;;
1452;SDS011;720;47.738;7.998;2024-02-15T01:03:13;1.50;;;1.40;;
1452;SDS011;720;47.738;7.998;2024-02-15T01:05:40;1.55;;;0.90;;
1452;SDS011;720;47.738;7.998;2024-02-15T01:08:08;1.03;;;1.00;;
1452;SDS011;720;47.738;7.998;2024-02-15T01:10:34;2.17;;;1.55;;
1452;SDS011;720;47.738;7.998;2024-02-15T01:13:00;1.58;;;1.48;;
1452;SDS011;720;47.738;7.998;2024-02-15T01:15:25;2.70;;;1.40;;
1452;SDS011;720;47.738;7.998;2024-02-15T01:17:51;2.20;;;1.10;;
1452;SDS011;720;47.738;7.998;2024-02-15T01:20:17;2.27;;;1.27;;
1452;SDS011;720;47.738;7.998;2024-02-15T01:22:42;1.90;;;1.30;;
1452;SDS011;720;47.738;7.998;2024-02-15T01:25:09;2.65;;;1.20;;
1452;SDS011;720;47.738;7.998;2024-02-15T01:27:36;1.20;;;0.90;;
1452;SDS011;720;47.738;7.998;2024-02-15T01:30:01;1.47;;;1.37;;
1452;SDS011;720;47.738;7.998;2024-02-15T01:32:29;0.82;;;0.70;;
1452;SDS011;720;47.738;7.998;2024-02-15T01:34:55;1.27;;;1.17;;
1452;SDS011;720;47.738;7.998;2024-02-15T01:37:21;3.10;;;1.70;;
1452;SDS011;720;47.738;7.998;2024-02-15T01:39:47;3.30;;;1.97;;
1452;SDS011;720;47.738;7.998;2024-02-15T01:42:13;2.53;;;1.77;;
1452;SDS011;720;47.738;7.998;2024-02-15T01:44:39;1.58;;;1.48;;
1452;SDS011;720;47.738;7.998;2024-02-15T01:47:06;2.28;;;1.65;;
1452;SDS011;720;47.738;7.998;2024-02-15T01:49:33;3.97;;;1.38;;
1452;SDS011;720;47.738;7.998;2024-02-15T01:51:59;1.80;;;1.30;;
1452;SDS011;720;47.738;7.998;2024-02-15T01:54:27;3.22;;;2.90;;
1452;SDS011;720;47.738;7.998;2024-02-15T01:56:53;1.35;;;1.25;;
1452;SDS011;720;47.738;7.998;2024-02-15T01:59:19;1.73;;;1.60;;
1452;SDS011;720;47.738;7.998;2024-02-15T02:01:48;3.70;;;1.80;;
1452;SDS011;720;47.738;7.998;2024-02-15T02:04:14;0.95;;;0.95;;
1452;SDS011;720;47.738;7.998;2024-02-15T02:06:40;3.45;;;1.13;;
1452;SDS011;720;47.738;7.998;2024-02-15T02:09:09;4.13;;;1.43;;
1452;SDS011;720;47.738;7.998;2024-02-15T02:11:37;2.13;;;1.92;;
1452;SDS011;720;47.738;7.998;2024-02-15T02:14:03;3.43;;;1.53;;
1452;SDS011;720;47.738;7.998;2024-02-15T02:16:29;1.37;;;1.20;;
1452;SDS011;720;47.738;7.998;2024-02-15T02:18:57;5.88;;;0.90;;
1452;SDS011;720;47.738;7.998;2024-02-15T02:21:27;3.33;;;1.27;;
1452;SDS011;720;47.738;7.998;2024-02-15T02:23:57;3.13;;;2.03;;
1452;SDS011;720;47.738;7.998;2024-02-15T02:26:24;2.25;;;1.65;;
1452;SDS011;720;47.738;7.998;2024-02-15T02:28:50;2.05;;;1.60;;
1452;SDS011;720;47.738;7.998;2024-02-15T02:31:19;1.77;;;1.67;;
1452;SDS011;720;47.738;7.998;2024-02-15T02:33:47;3.00;;;1.50;;
1452;SDS011;720;47.738;7.998;2024-02-15T02:36:17;1.30;;;1.20;;
1452;SDS011;720;47.738;7.998;2024-02-15T02:38:43;2.30;;;2.10;;
1452;SDS011;720;47.738;7.998;2024-02-15T02:41:10;2.53;;;1.98;;
1452;SDS011;720;47.738;7.998;2024-02-15T02:43:37;2.60;;;1.50;;
1452;SDS011;720;47.738;7.998;2024-02-15T02:46:06;2.50;;;1.63;;
1452;SDS011;720;47.738;7.998;2024-02-15T02:48:32;1.30;;;1.20;;
1452;SDS011;720;47.738;7.998;2024-02-15T02:50:57;3.67;;;1.60;;
1452;SDS011;720;47.738;7.998;2024-02-15T02:53:24;1.73;;;1.27;;
1452;SDS011;720;47.738;7.998;2024-02-15T02:55:49;1.93;;;1.30;;
1452;SDS011;720;47.738;7.998;2024-02-15T02:58:16;1.25;;;1.15;;
1452;SDS011;720;47.738;7.998;2024-02-15T03:00:42;1.30;;;1.03;;
1452;SDS011;720;47.738;7.998;2024-02-15T03:03:08;2.83;;;1.10;;
1452;SDS011;720;47.738;7.998;2024-02-15T03:05:34;1.95;;;1.45;;
1452;SDS011;720;47.738;7.998;2024-02-15T03:08:00;5.07;;;1.60;;
1452;SDS011;720;47.738;7.998;2024-02-15T03:10:26;1.67;;;1.50;;
1452;SDS011;720;47.738;7.998;2024-02-15T03:12:51;4.60;;;1.40;;
1452;SDS011;720;47.738;7.998;2024-02-15T03:15:17;1.35;;;1.10;;
1452;SDS011;720;47.738;7.998;2024-02-15T03:17:45;2.05;;;1.55;;
1452;SDS011;720;47.738;7.998;2024-02-15T03:20:12;1.30;;;1.20;;
1452;SDS011;720;47.738;7.998;2024-02-15T03:22:50;1.10;;;1.00;;
1452;SDS011;720;47.738;7.998;2024-02-15T03:25:17;3.53;;;1.25;;
1452;SDS011;720;47.738;7.998;2024-02-15T03:27:43;1.83;;;0.80;;
1452;SDS011;720;47.738;7.998;2024-02-15T03:30:08;2.30;;;0.80;;
1452;SDS011;720;47.738;7.998;2024-02-15T03:32:35;1.20;;;1.00;;
1452;SDS011;720;47.738;7.998;2024-02-15T03:35:02;1.20;;;0.70;;
1452;SDS011;720;47.738;7.998;2024-02-15T03:37:27;1.20;;;0.90;;
1452;SDS011;720;47.738;7.998;2024-02-15T03:39:54;2.70;;;1.70;;
1452;SDS011;720;47.738;7.998;2024-02-15T03:42:20;1.55;;;1.35;;
1452;SDS011;720;47.738;7.998;2024-02-15T03:44:46;1.00;;;1.00;;
1452;SDS011;720;47.738;7.998;2024-02-15T03:47:12;2.10;;;0.90;;
1452;SDS011;720;47.738;7.998;2024-02-15T03:49:40;4.63;;;1.05;;
1452;SDS011;720;47.738;7.998;2024-02-15T03:52:07;1.52;;;1.02;;
1452;SDS011;720;47.738;7.998;2024-02-15T03:54:35;2.08;;;1.00;;
1452;SDS011;720;47.738;7.998;2024-02-15T03:57:01;2.43;;;1.60;;
1452;SDS011;720;47.738;7.998;2024-02-15T03:59:27;2.60;;;1.00;;
1452;SDS011;720;47.738;7.998;2024-02-15T04:01:53;1.60;;;1.20;;
1452;SDS011;720;47.738;7.998;2024-02-15T04:04:19;1.20;;;0.88;;
1452;SDS011;720;47.738;7.998;2024-02-15T04:06:50;1.85;;;0.80;;
1452;SDS011;720;47.738;7.998;2024-02-15T04:09:17;2.20;;;1.20;;
1452;SDS011;720;47.738;7.998;2024-02-15T04:11:46;1.15;;;1.05;;
1452;SDS011;720;47.738;7.998;2024-02-15T04:14:15;0.80;;;0.80;;
1452;SDS011;720;47.738;7.998;2024-02-15T04:16:43;2.00;;;1.10;;
1452;SDS011;720;47.738;7.998;2024-02-15T04:19:09;2.90;;;2.03;;
1452;SDS011;720;47.738;7.998;2024-02-15T04:21:35;1.73;;;1.63;;
1452;SDS011;720;47.738;7.998;2024-02-15T04:24:01;2.13;;;1.50;;
1452;SDS011;720;47.738;7.998;2024-02-15T04:26:27;1.37;;;1.27;;
1452;SDS011;720;47.738;7.998;2024-02-15T04:28:55;1.50;;;1.20;;
1452;SDS011;720;47.738;7.998;2024-02-15T04:31:22;3.60;;;1.83;;
1452;SDS011;720;47.738;7.998;2024-02-15T04:33:51;1.67;;;1.30;;
1452;SDS011;720;47.738;7.998;2024-02-15T04:36:18;2.03;;;1.20;;
1452;SDS011;720;47.738;7.998;2024-02-15T04:38:48;1.00;;;0.70;;
1452;SDS011;720;47.738;7.998;2024-02-15T04:41:18;1.98;;;0.90;;
1452;SDS011;720;47.738;7.998;2024-02-15T04:43:51;0.75;;;0.75;;
1452;SDS011;720;47.738;7.998;2024-02-15T04:46:17;2.80;;;1.70;;
1452;SDS011;720;47.738;7.998;2024-02-15T04:48:47;1.50;;;1.13;;
1452;SDS011;720;47.738;7.998;2024-02-15T04:51:14;2.30;;;1.75;;
1452;SDS011;720;47.738;7.998;2024-02-15T04:53:41;6.82;;;3.17;;
1452;SDS011;720;47.738;7.998;2024-02-15T04:56:07;3.08;;;2.85;;
1452;SDS011;720;47.738;7.998;2024-02-15T04:58:39;2.78;;;1.52;;
1452;SDS011;720;47.738;7.998;2024-02-15T05:01:13;1.63;;;1.48;;
1452;SDS011;720;47.738;7.998;2024-02-15T05:03:40;6.68;;;2.75;;
1452;SDS011;720;47.738;7.998;2024-02-15T05:06:07;3.50;;;2.25;;
1452;SDS011;720;47.738;7.998;2024-02-15T05:08:34;7.32;;;2.85;;
1452;SDS011;720;47.738;7.998;2024-02-15T05:11:07;6.85;;;3.70;;
1452;SDS011;720;47.738;7.998;2024-02-15T05:13:39;5.45;;;2.90;;
1452;SDS011;720;47.738;7.998;2024-02-15T05:16:04;2.83;;;2.53;;
1452;SDS011;720;47.738;7.998;2024-02-15T05:18:30;2.63;;;1.90;;
1452;SDS011;720;47.738;7.998;2024-02-15T05:20:56;2.33;;;1.90;;
1452;SDS011;720;47.738;7.998;2024-02-15T05:23:22;4.60;;;2.27;;
1452;SDS011;720;47.738;7.998;2024-02-15T05:25:48;3.93;;;2.20;;
1452;SDS011;720;47.738;7.998;2024-02-15T05:28:13;4.60;;;2.27;;
1452;SDS011;720;47.738;7.998;2024-02-15T05:30:39;1.87;;;1.77;;
1452;SDS011;720;47.738;7.998;2024-02-15T05:33:05;2.43;;;1.40;;
1452;SDS011;720;47.738;7.998;2024-02-15T05:35:35;1.20;;;1.20;;
1452;SDS011;720;47.738;7.998;2024-02-15T05:38:01;1.35;;;1.25;;
1452;SDS011;720;47.738;7.998;2024-02-15T05:40:29;4.10;;;1.00;;
1452;SDS011;720;47.738;7.998;2024-02-15T05:42:57;2.53;;;2.33;;
1452;SDS011;720;47.738;7.998;2024-02-15T05:47:51;6.70;;;2.88;;
1452;SDS011;720;47.738;7.998;2024-02-15T05:50:18;1.65;;;1.55;;
1452;SDS011;720;47.738;7.998;2024-02-15T05:52:46;1.88;;;1.23;;
1452;SDS011;720;47.738;7.998;2024-02-15T05:55:12;1.50;;;1.40;;
1452;SDS011;720;47.738;7.998;2024-02-15T05:57:44;3.42;;;2.85;;
1452;SDS011;720;47.738;7.998;2024-02-15T06:00:10;6.00;;;2.42;;
1452;SDS011;720;47.738;7.998;2024-02-15T06:02:37;2.33;;;2.13;;
1452;SDS011;720;47.738;7.998;2024-02-15T06:05:03;10.13;;;2.50;;
1452;SDS011;720;47.738;7.998;2024-02-15T06:07:30;5.05;;;1.85;;
1452;SDS011;720;47.738;7.998;2024-02-15T06:09:57;3.60;;;2.15;;
1452;SDS011;720;47.738;7.998;2024-02-15T06:12:27;1.30;;;0.90;;
1452;SDS011;720;47.738;7.998;2024-02-15T06:14:54;1.15;;;0.98;;
1452;SDS011;720;47.738;7.998;2024-02-15T06:17:20;1.00;;;1.00;;
1452;SDS011;720;47.738;7.998;2024-02-15T06:19:45;3.77;;;1.57;;
1452;SDS011;720;47.738;7.998;2024-02-15T06:22:11;2.40;;;1.90;;
1452;SDS011;720;47.738;7.998;2024-02-15T06:24:37;1.52;;;1.27;;
1452;SDS011;720;47.738;7.998;2024-02-15T06:27:04;2.10;;;1.40;;
1452;SDS011;720;47.738;7.998;2024-02-15T06:29:30;1.48;;;1.25;;
1452;SDS011;720;47.738;7.998;2024-02-15T06:32:15;1.70;;;1.60;;
1452;SDS011;720;47.738;7.998;2024-02-15T06:34:59;2.28;;;1.80;;
1452;SDS011;720;47.738;7.998;2024-02-15T06:37:43;1.00;;;1.00;;
1452;SDS011;720;47.738;7.998;2024-02-15T06:40:27;1.60;;;1.50;;
1452;SDS011;720;47.738;7.998;2024-02-15T06:42:53;1.92;;;1.45;;
1452;SDS011;720;47.738;7.998;2024-02-15T06:45:19;1.37;;;1.00;;
1452;SDS011;720;47.738;7.998;2024-02-15T06:47:45;2.63;;;1.80;;
1452;SDS011;720;47.738;7.998;2024-02-15T06:50:13;1.20;;;1.10;;
1452;SDS011;720;47.738;7.998;2024-02-15T06:52:42;4.00;;;1.40;;
1452;SDS011;720;47.738;7.998;2024-02-15T06:55:08;1.02;;;1.02;;
1452;SDS011;720;47.738;7.998;2024-02-15T06:57:37;0.88;;;0.60;;
1452;SDS011;720;47.738;7.998;2024-02-15T07:00:06;1.48;;;0.73;;
1452;SDS011;720;47.738;7.998;2024-02-15T07:02:34;1.60;;;1.00;;
1452;SDS011;720;47.738;7.998;2024-02-15T07:05:00;1.95;;;0.75;;
1452;SDS011;720;47.738;7.998;2024-02-15T07:07:28;1.45;;;0.80;;
1452;SDS011;720;47.738;7.998;2024-02-15T07:09:54;1.40;;;1.27;;
1452;SDS011;720;47.738;7.998;2024-02-15T07:12:19;0.77;;;0.77;;
1452;SDS011;720;47.738;7.998;2024-02-15T07:14:46;0.80;;;0.80;;
1452;SDS011;720;47.738;7.998;2024-02-15T07:17:12;3.13;;;1.52;;
1452;SDS011;720;47.738;7.998;2024-02-15T07:19:43;2.03;;;1.38;;
1452;SDS011;720;47.738;7.998;2024-02-15T07:22:09;1.45;;;1.35;;
1452;SDS011;720;47.738;7.998;2024-02-15T07:24:35;0.60;;;0.60;;
1452;SDS011;720;47.738;7.998;2024-02-15T07:27:03;2.10;;;1.10;;
1452;SDS011;720;47.738;7.998;2024-02-15T07:29:29;1.55;;;1.45;;
1452;SDS011;720;47.738;7.998;2024-02-15T07:31:57;1.35;;;0.70;;
1452;SDS011;720;47.738;7.998;2024-02-15T07:34:24;1.35;;;1.17;;
1452;SDS011;720;47.738;7.998;2024-02-15T07:36:51;4.55;;;1.33;;
1452;SDS011;720;47.738;7.998;2024-02-15T07:39:17;1.43;;;1.10;;
1452;SDS011;720;47.738;7.998;2024-02-15T07:41:50;1.73;;;0.80;;
1452;SDS011;720;47.738;7.998;2024-02-15T07:44:16;1.55;;;1.10;;
1452;SDS011;720;47.738;7.998;2024-02-15T07:46:42;1.15;;;1.05;;
1452;SDS011;720;47.738;7.998;2024-02-15T07:49:08;1.13;;;1.10;;
1452;SDS011;720;47.738;7.998;2024-02-15T07:51:34;11.63;;;2.10;;
1452;SDS011;720;47.738;7.998;2024-02-15T07:54:00;1.63;;;1.45;;
1452;SDS011;720;47.738;7.998;2024-02-15T07:56:26;2.10;;;1.20;;
1452;SDS011;720;47.738;7.998;2024-02-15T07:58:52;4.73;;;1.07;;
1452;SDS011;720;47.738;7.998;2024-02-15T08:01:18;2.55;;;1.67;;
1452;SDS011;720;47.738;7.998;2024-02-15T08:03:47;3.42;;;2.10;;
1452;SDS011;720;47.738;7.998;2024-02-15T08:06:13;3.75;;;2.05;;
1452;SDS011;720;47.738;7.998;2024-02-15T08:08:41;4.80;;;2.65;;
1452;SDS011;720;47.738;7.998;2024-02-15T08:11:09;3.55;;;1.92;;
1452;SDS011;720;47.738;7.998;2024-02-15T08:13:40;1.70;;;1.60;;
1452;SDS011;720;47.738;7.998;2024-02-15T08:16:16;3.80;;;1.30;;
1452;SDS011;720;47.738;7.998;2024-02-15T08:18:43;1.95;;;1.85;;
1452;SDS011;720;47.738;7.998;2024-02-15T08:21:11;2.35;;;1.20;;
1452;SDS011;720;47.738;7.998;2024-02-15T08:23:36;1.87;;;1.07;;
1452;SDS011;720;47.738;7.998;2024-02-15T08:26:02;2.73;;;2.30;;
1452;SDS011;720;47.738;7.998;2024-02-15T08:28:28;4.30;;;3.90;;
1452;SDS011;720;47.738;7.998;2024-02-15T08:30:54;2.23;;;2.03;;
1452;SDS011;720;47.738;7.998;2024-02-15T08:33:23;3.90;;;2.10;;
1452;SDS011;720;47.738;7.998;2024-02-15T08:35:50;2.30;;;2.20;;
1452;SDS011;720;47.738;7.998;2024-02-15T08:38:15;4.00;;;3.00;;
1452;SDS011;720;47.738;7.998;2024-02-15T08:40:42;3.00;;;2.63;;
1452;SDS011;720;47.738;7.998;2024-02-15T08:43:10;3.45;;;2.70;;
1452;SDS011;720;47.738;7.998;2024-02-15T08:45:36;4.15;;;3.05;;
1452;SDS011;720;47.738;7.998;2024-02-15T08:48:02;2.27;;;2.10;;
1452;SDS011;720;47.738;7.998;2024-02-15T08:50:29;2.03;;;1.93;;
1452;SDS011;720;47.738;7.998;2024-02-15T08:52:55;2.40;;;2.00;;
1452;SDS011;720;47.738;7.998;2024-02-15T08:55:21;4.10;;;2.00;;
1452;SDS011;720;47.738;7.998;2024-02-15T08:57:52;2.90;;;2.00;;
1452;SDS011;720;47.738;7.998;2024-02-15T09:00:18;3.25;;;2.67;;
1452;SDS011;720;47.738;7.998;2024-02-15T09:02:45;2.50;;;2.30;;
1452;SDS011;720;47.738;7.998;2024-02-15T09:05:11;4.27;;;3.07;;
1452;SDS011;720;47.738;7.998;2024-02-15T09:07:41;4.03;;;2.10;;
1452;SDS011;720;47.738;7.998;2024-02-15T09:10:08;3.80;;;1.77;;
1452;SDS011;720;47.738;7.998;2024-02-15T09:12:35;1.60;;;1.50;;
1452;SDS011;720;47.738;7.998;2024-02-15T09:15:06;2.00;;;1.60;;
1452;SDS011;720;47.738;7.998;2024-02-15T09:17:32;1.70;;;1.60;;
1452;SDS011;720;47.738;7.998;2024-02-15T09:20:03;2.30;;;1.97;;
1452;SDS011;720;47.738;7.998;2024-02-15T09:22:32;1.97;;;1.87;;
1452;SDS011;720;47.738;7.998;2024-02-15T09:24:58;3.60;;;2.50;;
1452;SDS011;720;47.738;7.998;2024-02-15T09:27:23;4.83;;;4.37;;
1452;SDS011;720;47.738;7.998;2024-02-15T09:29:49;3.90;;;3.00;;
1452;SDS011;720;47.738;7.998;2024-02-15T09:32:14;4.47;;;3.67;;
1452;SDS011;720;47.738;7.998;2024-02-15T09:34:40;4.80;;;3.70;;
1452;SDS011;720;47.738;7.998;2024-02-15T09:37:06;6.10;;;2.50;;
1452;SDS011;720;47.738;7.998;2024-02-15T09:39:32;5.13;;;3.20;;
1452;SDS011;720;47.738;7.998;2024-02-15T09:41:58;3.17;;;2.63;;
1452;SDS011;720;47.738;7.998;2024-02-15T09:44:24;2.77;;;2.57;;
1452;SDS011;720;47.738;7.998;2024-02-15T09:47:03;4.73;;;4.13;;
1452;SDS011;720;47.738;7.998;2024-02-15T09:49:33;7.37;;;5.80;;
1452;SDS011;720;47.738;7.998;2024-02-15T09:52:04;8.33;;;5.03;;
1452;SDS011;720;47.738;7.998;2024-02-15T09:54:37;7.73;;;5.03;;
1452;SDS011;720;47.738;7.998;2024-02-15T09:57:05;4.73;;;2.70;;
1452;SDS011;720;47.738;7.998;2024-02-15T09:59:33;4.10;;;2.57;;
1452;SDS011;720;47.738;7.998;2024-02-15T10:02:01;3.93;;;2.73;;
1452;SDS011;720;47.738;7.998;2024-02-15T10:04:27;3.90;;;3.60;;
1452;SDS011;720;47.738;7.998;2024-02-15T10:06:53;2.20;;;2.00;;
1452;SDS011;720;47.738;7.998;2024-02-15T10:09:25;3.63;;;1.63;;
1452;SDS011;720;47.738;7.998;2024-02-15T10:11:59;2.17;;;1.73;;
1452;SDS011;720;47.738;7.998;2024-02-15T10:14:25;2.03;;;1.40;;
1452;SDS011;720;47.738;7.998;2024-02-15T10:16:54;4.03;;;1.87;;
1452;SDS011;720;47.738;7.998;2024-02-15T10:19:20;1.47;;;1.10;;
1452;SDS011;720;47.738;7.998;2024-02-15T10:21:53;2.23;;;1.23;;
1452;SDS011;720;47.738;7.998;2024-02-15T10:24:22;1.07;;;0.97;;
1452;SDS011;720;47.738;7.998;2024-02-15T10:26:49;0.83;;;0.80;;
1452;SDS011;720;47.738;7.998;2024-02-15T10:29:16;1.23;;;0.70;;
1452;SDS011;720;47.738;7.998;2024-02-15T10:31:52;1.20;;;0.70;;
1452;SDS011;720;47.738;7.998;2024-02-15T10:34:19;0.73;;;0.73;;
1452;SDS011;720;47.738;7.998;2024-02-15T10:36:45;1.00;;;0.83;;
1452;SDS011;720;47.738;7.998;2024-02-15T10:39:12;1.73;;;0.80;;
1452;SDS011;720;47.738;7.998;2024-02-15T10:41:51;1.83;;;1.13;;
1452;SDS011;720;47.738;7.998;2024-02-15T10:46:53;0.80;;;0.80;;
1452;SDS011;720;47.738;7.998;2024-02-15T10:49:19;1.63;;;0.90;;
1452;SDS011;720;47.738;7.998;2024-02-15T10:51:48;1.23;;;0.80;;
1452;SDS011;720;47.738;7.998;2024-02-15T10:57:05;0.80;;;0.80;;
1452;SDS011;720;47.738;7.998;2024-02-15T10:59:32;0.90;;;0.80;;
1452;SDS011;720;47.738;7.998;2024-02-15T11:02:13;1.00;;;0.70;;
1452;SDS011;720;47.738;7.998;2024-02-15T11:04:48;1.03;;;0.73;;
1452;SDS011;720;47.738;7.998;2024-02-15T11:07:19;2.03;;;1.27;;
1452;SDS011;720;47.738;7.998;2024-02-15T11:09:46;2.20;;;0.83;;
1452;SDS011;720;47.738;7.998;2024-02-15T11:12:12;0.93;;;0.90;;
1452;SDS011;720;47.738;7.998;2024-02-15T11:14:39;1.03;;;0.90;;
1452;SDS011;720;47.738;7.998;2024-02-15T11:17:09;1.23;;;0.93;;
1452;SDS011;720;47.738;7.998;2024-02-15T11:22:15;1.00;;;1.00;;
1452;SDS011;720;47.738;7.998;2024-02-15T11:24:48;0.87;;;0.83;;
1452;SDS011;720;47.738;7.998;2024-02-15T11:27:26;1.97;;;1.30;;
1452;SDS011;720;47.738;7.998;2024-02-15T11:29:56;1.83;;;1.30;;
1452;SDS011;720;47.738;7.998;2024-02-15T11:35:23;3.13;;;1.07;;
1452;SDS011;720;47.738;7.998;2024-02-15T11:40:18;1.20;;;1.07;;
1452;SDS011;720;47.738;7.998;2024-02-15T11:42:47;0.73;;;0.73;;
1452;SDS011;720;47.738;7.998;2024-02-15T11:45:18;0.90;;;0.73;;
1452;SDS011;720;47.738;7.998;2024-02-15T11:47:48;0.90;;;0.60;;
1452;SDS011;720;47.738;7.998;2024-02-15T11:50:16;0.60;;;0.60;;
1452;SDS011;720;47.738;7.998;2024-02-15T11:52:46;0.73;;;0.70;;
1452;SDS011;720;47.738;7.998;2024-02-15T11:55:19;2.60;;;0.73;;
1452;SDS011;720;47.738;7.998;2024-02-15T12:00:29;1.43;;;0.80;;
1452;SDS011;720;47.738;7.998;2024-02-15T12:03:15;0.63;;;0.60;;
1452;SDS011;720;47.738;7.998;2024-02-15T12:06:00;0.87;;;0.83;;
1452;SDS011;720;47.738;7.998;2024-02-15T12:08:48;1.80;;;1.23;;
1452;SDS011;720;47.738;7.998;2024-02-15T12:11:35;1.73;;;1.13;;
1452;SDS011;720;47.738;7.998;2024-02-15T12:14:19;0.80;;;0.80;;
1452;SDS011;720;47.738;7.998;2024-02-15T12:19:52;0.70;;;0.70;;
1452;SDS011;720;47.738;7.998;2024-02-15T12:22:21;1.23;;;1.07;;
1452;SDS011;720;47.738;7.998;2024-02-15T12:24:57;1.17;;;1.07;;
1452;SDS011;720;47.738;7.998;2024-02-15T12:27:25;1.10;;;1.00;;
1452;SDS011;720;47.738;7.998;2024-02-15T12:29:54;0.80;;;0.80;;
1452;SDS011;720;47.738;7.998;2024-02-15T12:32:24;1.10;;;1.00;;
1452;SDS011;720;47.738;7.998;2024-02-15T12:34:52;0.87;;;0.83;;
1452;SDS011;720;47.738;7.998;2024-02-15T12:37:19;0.90;;;0.90;;
1452;SDS011;720;47.738;7.998;2024-02-15T12:39:46;0.87;;;0.87;;
1452;SDS011;720;47.738;7.998;2024-02-15T12:42:14;1.10;;;1.00;;
1452;SDS011;720;47.738;7.998;2024-02-15T12:44:47;1.50;;;1.03;;
1452;SDS011;720;47.738;7.998;2024-02-15T12:47:22;0.97;;;0.97;;
1452;SDS011;720;47.738;7.998;2024-02-15T12:49:50;2.07;;;1.20;;
1452;SDS011;720;47.738;7.998;2024-02-15T12:52:32;1.00;;;0.87;;
1452;SDS011;720;47.738;7.998;2024-02-15T12:55:06;2.70;;;1.10;;
1452;SDS011;720;47.738;7.998;2024-02-15T12:57:36;2.00;;;1.57;;
1452;SDS011;720;47.738;7.998;2024-02-15T13:00:05;1.40;;;0.90;;
1452;SDS011;720;47.738;7.998;2024-02-15T13:02:39;1.93;;;1.03;;
1452;SDS011;720;47.738;7.998;2024-02-15T13:05:06;2.90;;;1.30;;
1452;SDS011;720;47.738;7.998;2024-02-15T13:07:37;1.97;;;1.40;;
1452;SDS011;720;47.738;7.998;2024-02-15T13:10:04;2.00;;;1.23;;
1452;SDS011;720;47.738;7.998;2024-02-15T13:12:33;0.97;;;0.97;;
1452;SDS011;720;47.738;7.998;2024-02-15T13:15:03;1.97;;;1.33;;
1452;SDS011;720;47.738;7.998;2024-02-15T13:17:31;1.67;;;1.20;;
1452;SDS011;720;47.738;7.998;2024-02-15T13:19:58;1.87;;;1.70;;
1452;SDS011;720;47.738;7.998;2024-02-15T13:22:31;1.33;;;1.23;;
1452;SDS011;720;47.738;7.998;2024-02-15T13:24:57;1.43;;;1.00;;
1452;SDS011;720;47.738;7.998;2024-02-15T13:27:23;1.33;;;1.00;;
1452;SDS011;720;47.738;7.998;2024-02-15T13:29:49;2.00;;;1.13;;
1452;SDS011;720;47.738;7.998;2024-02-15T13:32:18;0.93;;;0.93;;
1452;SDS011;720;47.738;7.998;2024-02-15T13:34:47;1.23;;;0.90;;
1452;SDS011;720;47.738;7.998;2024-02-15T13:37:20;2.00;;;1.53;;
1452;SDS011;720;47.738;7.998;2024-02-15T13:39:48;1.33;;;1.17;;
1452;SDS011;720;47.738;7.998;2024-02-15T13:42:14;1.27;;;1.10;;
1452;SDS011;720;47.738;7.998;2024-02-15T13:44:41;1.03;;;1.03;;
1452;SDS011;720;47.738;7.998;2024-02-15T13:47:08;1.03;;;0.97;;
1452;SDS011;720;47.738;7.998;2024-02-15T13:49:33;1.27;;;1.17;;
1452;SDS011;720;47.738;7.998;2024-02-15T13:51:59;2.20;;;1.53;;
1452;SDS011;720;47.738;7.998;2024-02-15T13:54:29;3.00;;;1.20;;
1452;SDS011;720;47.738;7.998;2024-02-15T13:56:55;1.10;;;1.00;;
1452;SDS011;720;47.738;7.998;2024-02-15T13:59:21;1.03;;;0.93;;
1452;SDS011;720;47.738;7.998;2024-02-15T14:01:48;1.73;;;0.93;;
1452;SDS011;720;47.738;7.998;2024-02-15T14:04:14;1.33;;;1.10;;
1452;SDS011;720;47.738;7.998;2024-02-15T14:06:41;1.23;;;1.10;;
1452;SDS011;720;47.738;7.998;2024-02-15T14:09:09;3.20;;;1.37;;
1452;SDS011;720;47.738;7.998;2024-02-15T14:11:36;1.10;;;1.10;;
1452;SDS011;720;47.738;7.998;2024-02-15T14:14:03;2.57;;;1.47;;
1452;SDS011;720;47.738;7.998;2024-02-15T14:16:30;1.23;;;1.03;;
1452;SDS011;720;47.738;7.998;2024-02-15T14:18:56;2.00;;;1.07;;
1452;SDS011;720;47.738;7.998;2024-02-15T14:21:22;0.80;;;0.80;;
1452;SDS011;720;47.738;7.998;2024-02-15T14:23:48;2.33;;;1.57;;
1452;SDS011;720;47.738;7.998;2024-02-15T14:26:14;1.33;;;1.23;;
1452;SDS011;720;47.738;7.998;2024-02-15T14:28:41;1.67;;;1.57;;
1452;SDS011;720;47.738;7.998;2024-02-15T14:31:09;4.30;;;1.60;;
1452;SDS011;720;47.738;7.998;2024-02-15T14:33:54;1.20;;;1.03;;
1452;SDS011;720;47.738;7.998;2024-02-15T14:36:20;1.03;;;1.03;;
1452;SDS011;720;47.738;7.998;2024-02-15T14:38:46;1.10;;;0.83;;
1452;SDS011;720;47.738;7.998;2024-02-15T14:41:12;1.37;;;1.27;;
1452;SDS011;720;47.738;7.998;2024-02-15T14:43:37;1.70;;;1.00;;
1452;SDS011;720;47.738;7.998;2024-02-15T14:46:03;1.63;;;1.10;;
1452;SDS011;720;47.738;7.998;2024-02-15T14:48:33;1.50;;;1.00;;
1452;SDS011;720;47.738;7.998;2024-02-15T14:50:59;4.93;;;1.80;;
1452;SDS011;720;47.738;7.998;2024-02-15T14:53:25;1.80;;;1.60;;
1452;SDS011;720;47.738;7.998;2024-02-15T14:55:54;2.50;;;1.40;;
1452;SDS011;720;47.738;7.998;2024-02-15T14:58:20;1.10;;;1.00;;
1452;SDS011;720;47.738;7.998;2024-02-15T15:00:47;1.43;;;1.33;;
1452;SDS011;720;47.738;7.998;2024-02-15T15:03:14;2.63;;;1.30;;
1452;SDS011;720;47.738;7.998;2024-02-15T15:05:41;1.60;;;1.40;;
1452;SDS011;720;47.738;7.998;2024-02-15T15:08:25;1.50;;;1.40;;
1452;SDS011;720;47.738;7.998;2024-02-15T15:11:09;2.97;;;1.73;;
1452;SDS011;720;47.738;7.998;2024-02-15T15:13:53;1.60;;;1.37;;
1452;SDS011;720;47.738;7.998;2024-02-15T15:16:19;2.03;;;1.07;;
1452;SDS011;720;47.738;7.998;2024-02-15T15:18:50;1.43;;;1.33;;
1452;SDS011;720;47.738;7.998;2024-02-15T15:21:17;2.33;;;1.50;;
1452;SDS011;720;47.738;7.998;2024-02-15T15:23:47;2.27;;;2.07;;
1452;SDS011;720;47.738;7.998;2024-02-15T15:26:20;1.53;;;1.37;;
1452;SDS011;720;47.738;7.998;2024-02-15T15:28:47;1.97;;;1.70;;
1452;SDS011;720;47.738;7.998;2024-02-15T15:31:15;1.83;;;1.33;;
1452;SDS011;720;47.738;7.998;2024-02-15T15:33:42;2.47;;;1.70;;
1452;SDS011;720;47.738;7.998;2024-02-15T15:36:08;2.03;;;1.93;;
1452;SDS011;720;47.738;7.998;2024-02-15T15:38:35;4.10;;;2.10;;
1452;SDS011;720;47.738;7.998;2024-02-15T15:41:00;1.60;;;1.50;;
1452;SDS011;720;47.738;7.998;2024-02-15T15:43:28;1.60;;;1.50;;
1452;SDS011;720;47.738;7.998;2024-02-15T15:45:54;4.27;;;1.93;;
1452;SDS011;720;47.738;7.998;2024-02-15T15:48:20;1.23;;;1.13;;
1452;SDS011;720;47.738;7.998;2024-02-15T15:50:46;2.17;;;1.40;;
1452;SDS011;720;47.738;7.998;2024-02-15T15:53:13;2.50;;;1.43;;
1452;SDS011;720;47.738;7.998;2024-02-15T15:55:39;1.10;;;1.00;;
1452;SDS011;720;47.738;7.998;2024-02-15T15:58:05;1.43;;;1.33;;